createdAt,value
2017-03-30T00:00:26.940Z,11.16
2017-03-30T00:01:39.191Z,11.1
2017-03-30T00:02:51.741Z,11.15
2017-03-30T00:04:04.265Z,11.2
2017-03-30T00:05:16.803Z,11.12
2017-03-30T00:06:29.346Z,11.18
2017-03-30T00:07:41.595Z,11.15
2017-03-30T00:08:54.121Z,11.15
2017-03-30T00:10:06.642Z,11.13
2017-03-30T00:11:18.856Z,11.16
2017-03-30T00:12:31.408Z,11.15
2017-03-30T00:13:43.914Z,11.18
2017-03-30T00:14:56.146Z,11.15
2017-03-30T00:16:08.390Z,11.18
2017-03-30T00:17:20.935Z,11.16
2017-03-30T00:18:33.146Z,11.15
2017-03-30T00:19:45.685Z,11.16
2017-03-30T00:20:58.173Z,11.12
2017-03-30T00:22:10.675Z,11.13
2017-03-30T00:23:22.897Z,11.18
2017-03-30T00:24:35.443Z,11.1
2017-03-30T00:25:47.964Z,11.12
2017-03-30T00:27:00.509Z,11.12
2017-03-30T00:28:12.752Z,11.18
2017-03-30T00:29:24.705Z,11.15
2017-03-30T00:30:37.270Z,11.15
2017-03-30T00:31:50.055Z,11.18
2017-03-30T00:33:02.290Z,11.15
2017-03-30T00:34:14.831Z,11.13
2017-03-30T00:35:27.074Z,11.15
2017-03-30T00:36:39.330Z,11.13
2017-03-30T00:37:51.248Z,11.16
2017-03-30T00:39:03.787Z,11.16
2017-03-30T00:40:16.315Z,11.15
2017-03-30T00:41:28.835Z,11.16
2017-03-30T00:42:41.074Z,11.13
2017-03-30T00:43:53.620Z,11.22
2017-03-30T00:45:05.844Z,11.13
2017-03-30T00:46:18.362Z,11.18
2017-03-30T00:47:30.911Z,11.19
2017-03-30T00:48:43.411Z,11.13
2017-03-30T00:49:55.662Z,11.19
2017-03-30T00:51:08.225Z,11.19
2017-03-30T00:52:20.749Z,11.16
2017-03-30T00:53:33.495Z,11.16
2017-03-30T00:54:45.733Z,11.16
2017-03-30T00:55:58.265Z,11.19
2017-03-30T00:57:10.777Z,11.22
2017-03-30T00:58:23.332Z,11.15
2017-03-30T00:59:36.103Z,11.13
2017-03-30T01:00:47.770Z,11.2
2017-03-30T01:01:59.983Z,11.25
2017-03-30T01:03:12.515Z,11.2
2017-03-30T01:04:25.062Z,11.18
2017-03-30T01:05:37.648Z,11.19
2017-03-30T01:06:50.193Z,11.19
2017-03-30T01:08:02.750Z,11.19
2017-03-30T01:09:15.009Z,11.18
2017-03-30T01:10:27.513Z,11.16
2017-03-30T01:11:40.027Z,11.16
2017-03-30T01:12:52.254Z,11.18
2017-03-30T01:14:04.778Z,11.13
2017-03-30T01:15:17.296Z,11.15
2017-03-30T01:16:29.842Z,11.18
2017-03-30T01:17:42.366Z,11.1
2017-03-30T01:18:54.605Z,11.08
2017-03-30T01:20:06.836Z,11.1
2017-03-30T01:21:19.072Z,11.01
2017-03-30T01:22:31.651Z,11.01
2017-03-30T01:23:43.909Z,11.02
2017-03-30T01:24:56.417Z,11
2017-03-30T01:26:08.650Z,11
2017-03-30T01:27:20.898Z,10.92
2017-03-30T01:28:33.422Z,10.97
2017-03-30T01:29:45.355Z,11
2017-03-30T01:30:57.562Z,10.92
2017-03-30T01:32:09.792Z,10.87
2017-03-30T01:33:21.994Z,10.97
2017-03-30T01:34:34.545Z,10.83
2017-03-30T01:35:46.794Z,10.9
2017-03-30T01:36:59.289Z,10.9
2017-03-30T01:38:11.543Z,10.83
2017-03-30T01:39:24.067Z,10.87
2017-03-30T01:40:36.310Z,10.87
2017-03-30T01:41:48.849Z,10.82
2017-03-30T01:43:01.370Z,10.82
2017-03-30T01:44:13.865Z,10.71
2017-03-30T01:45:26.389Z,10.79
2017-03-30T01:46:38.647Z,10.82
2017-03-30T01:47:51.204Z,10.79
2017-03-30T01:49:03.754Z,10.75
2017-03-30T01:50:16.006Z,10.77
2017-03-30T01:51:28.242Z,10.79
2017-03-30T01:52:40.790Z,10.77
2017-03-30T01:53:52.708Z,10.8
2017-03-30T01:55:04.922Z,10.79
2017-03-30T01:56:17.449Z,10.77
2017-03-30T01:57:29.971Z,10.72
2017-03-30T01:58:42.504Z,10.77
2017-03-30T01:59:54.701Z,10.72
2017-03-30T02:01:06.965Z,10.69
2017-03-30T02:02:19.192Z,10.65
2017-03-30T02:03:31.401Z,10.76
2017-03-30T02:04:43.928Z,10.67
2017-03-30T02:05:55.871Z,10.76
2017-03-30T02:07:08.423Z,10.69
2017-03-30T02:08:20.969Z,10.69
2017-03-30T02:09:33.180Z,10.69
2017-03-30T02:10:45.433Z,10.75
2017-03-30T02:11:57.934Z,10.69
2017-03-30T02:13:10.171Z,10.72
2017-03-30T02:14:22.699Z,10.72
2017-03-30T02:15:34.920Z,10.8
2017-03-30T02:16:46.838Z,10.68
2017-03-30T02:17:59.376Z,10.69
2017-03-30T02:19:11.608Z,10.68
2017-03-30T02:20:24.132Z,10.72
2017-03-30T02:21:36.664Z,10.69
2017-03-30T02:22:48.610Z,10.68
2017-03-30T02:24:01.159Z,10.67
2017-03-30T02:25:13.376Z,10.67
2017-03-30T02:26:25.924Z,10.67
2017-03-30T02:27:37.846Z,10.71
2017-03-30T02:28:50.089Z,10.72
2017-03-30T02:30:02.613Z,10.69
2017-03-30T02:31:15.206Z,10.69
2017-03-30T02:32:27.452Z,10.67
2017-03-30T02:33:39.684Z,10.67
2017-03-30T02:34:52.204Z,10.67
2017-03-30T02:36:04.700Z,10.69
2017-03-30T02:37:16.950Z,10.65
2017-03-30T02:38:29.474Z,10.64
2017-03-30T02:39:41.728Z,10.62
2017-03-30T02:40:54.256Z,10.67
2017-03-30T02:42:06.802Z,10.64
2017-03-30T02:43:19.341Z,10.65
2017-03-30T02:44:31.593Z,10.72
2017-03-30T02:45:43.836Z,10.64
2017-03-30T02:46:56.364Z,10.68
2017-03-30T02:48:09.124Z,10.65
2017-03-30T02:49:21.655Z,10.65
2017-03-30T02:50:34.199Z,10.67
2017-03-30T02:51:46.698Z,10.67
2017-03-30T02:52:59.215Z,10.64
2017-03-30T02:54:11.740Z,10.64
2017-03-30T02:55:24.286Z,10.68
2017-03-30T02:56:36.831Z,10.64
2017-03-30T02:57:49.050Z,10.65
2017-03-30T02:59:01.569Z,10.65
2017-03-30T03:00:13.795Z,10.71
2017-03-30T03:01:26.329Z,10.76
2017-03-30T03:02:38.862Z,10.71
2017-03-30T03:03:51.428Z,10.61
2017-03-30T03:05:03.954Z,10.64
2017-03-30T03:06:16.212Z,10.68
2017-03-30T03:07:28.741Z,10.58
2017-03-30T03:08:41.285Z,10.59
2017-03-30T03:09:53.788Z,10.61
2017-03-30T03:11:06.321Z,10.59
2017-03-30T03:12:18.531Z,10.58
2017-03-30T03:13:30.738Z,10.58
2017-03-30T03:14:42.967Z,10.59
2017-03-30T03:15:55.193Z,10.53
2017-03-30T03:17:07.735Z,10.55
2017-03-30T03:18:20.232Z,10.51
2017-03-30T03:19:32.467Z,10.49
2017-03-30T03:20:44.996Z,10.48
2017-03-30T03:21:57.246Z,10.46
2017-03-30T03:23:09.783Z,10.42
2017-03-30T03:24:22.001Z,10.49
2017-03-30T03:25:34.760Z,10.45
2017-03-30T03:26:47.268Z,10.43
2017-03-30T03:27:59.497Z,10.45
2017-03-30T03:29:12.001Z,10.42
2017-03-30T03:30:24.268Z,10.43
2017-03-30T03:31:36.509Z,10.49
2017-03-30T03:32:49.025Z,10.43
2017-03-30T03:34:01.255Z,10.46
2017-03-30T03:35:13.793Z,10.45
2017-03-30T03:36:26.344Z,10.42
2017-03-30T03:37:38.867Z,10.42
2017-03-30T03:38:51.114Z,10.43
2017-03-30T03:40:03.651Z,10.36
2017-03-30T03:41:16.174Z,10.43
2017-03-30T03:42:28.703Z,10.43
2017-03-30T03:43:40.939Z,10.39
2017-03-30T03:44:53.486Z,10.45
2017-03-30T03:46:06.011Z,10.38
2017-03-30T03:47:18.249Z,10.46
2017-03-30T03:48:30.781Z,10.33
2017-03-30T03:49:43.340Z,10.45
2017-03-30T03:50:55.863Z,10.33
2017-03-30T03:52:08.093Z,10.34
2017-03-30T03:53:20.307Z,10.33
2017-03-30T03:54:32.853Z,10.41
2017-03-30T03:55:45.095Z,10.36
2017-03-30T03:56:57.616Z,10.39
2017-03-30T03:58:10.115Z,10.46
2017-03-30T03:59:22.636Z,10.41
2017-03-30T04:00:35.179Z,10.45
2017-03-30T04:01:47.735Z,10.34
2017-03-30T04:02:59.954Z,10.34
2017-03-30T04:04:11.916Z,10.38
2017-03-30T04:05:24.148Z,10.33
2017-03-30T04:06:36.695Z,10.39
2017-03-30T04:07:49.214Z,10.39
2017-03-30T04:09:01.761Z,10.33
2017-03-30T04:10:14.051Z,10.36
2017-03-30T04:11:26.278Z,10.38
2017-03-30T04:12:38.216Z,10.36
2017-03-30T04:13:50.760Z,10.34
2017-03-30T04:15:02.987Z,10.43
2017-03-30T04:16:15.233Z,10.45
2017-03-30T04:17:27.771Z,10.41
2017-03-30T04:18:40.285Z,10.41
2017-03-30T04:19:52.849Z,10.41
2017-03-30T04:21:05.413Z,10.41
2017-03-30T04:22:17.981Z,10.48
2017-03-30T04:23:30.504Z,10.43
2017-03-30T04:24:43.046Z,10.39
2017-03-30T04:25:55.280Z,10.43
2017-03-30T04:27:07.838Z,10.46
2017-03-30T04:28:20.367Z,10.39
2017-03-30T04:29:32.884Z,10.38
2017-03-30T04:30:45.115Z,10.31
2017-03-30T04:31:57.651Z,10.48
2017-03-30T04:33:10.154Z,10.36
2017-03-30T04:34:22.690Z,10.41
2017-03-30T04:35:35.238Z,10.41
2017-03-30T04:36:47.759Z,10.45
2017-03-30T04:37:59.989Z,10.43
2017-03-30T04:39:12.230Z,10.39
2017-03-30T04:40:24.723Z,10.38
2017-03-30T04:41:37.248Z,10.33
2017-03-30T04:42:49.771Z,10.34
2017-03-30T04:44:02.289Z,10.43
2017-03-30T04:45:14.538Z,10.42
2017-03-30T04:46:27.083Z,10.48
2017-03-30T04:47:39.319Z,10.39
2017-03-30T04:48:51.268Z,10.45
2017-03-30T04:50:03.793Z,10.33
2017-03-30T04:51:16.035Z,10.42
2017-03-30T04:52:28.281Z,10.38
2017-03-30T04:53:40.823Z,10.41
2017-03-30T04:54:52.753Z,10.38
2017-03-30T04:56:05.291Z,10.38
2017-03-30T04:57:17.565Z,10.38
2017-03-30T04:58:30.111Z,10.41
2017-03-30T04:59:42.357Z,10.34
2017-03-30T05:00:54.588Z,10.41
2017-03-30T05:02:07.127Z,10.41
2017-03-30T05:03:18.978Z,10.36
2017-03-30T05:04:31.541Z,10.42
2017-03-30T05:05:43.769Z,10.43
2017-03-30T05:06:56.332Z,10.46
2017-03-30T05:08:08.877Z,10.46
2017-03-30T05:09:21.120Z,10.41
2017-03-30T05:10:33.649Z,10.48
2017-03-30T05:11:46.204Z,10.48
2017-03-30T05:12:58.474Z,10.46
2017-03-30T05:14:11.016Z,10.49
2017-03-30T05:15:23.258Z,10.48
2017-03-30T05:16:35.504Z,10.51
2017-03-30T05:17:47.727Z,10.53
2017-03-30T05:18:59.366Z,10.49
2017-03-30T05:20:11.887Z,10.53
2017-03-30T05:21:23.829Z,10.59
2017-03-30T05:22:36.058Z,10.57
2017-03-30T05:23:48.282Z,10.57
2017-03-30T05:25:00.779Z,10.67
2017-03-30T05:26:13.325Z,10.58
2017-03-30T05:27:25.867Z,10.71
2017-03-30T05:28:38.408Z,10.69
2017-03-30T05:29:50.315Z,10.61
2017-03-30T05:31:02.782Z,10.68
2017-03-30T05:32:15.030Z,10.69
2017-03-30T05:33:26.967Z,10.67
2017-03-30T05:34:39.497Z,10.82
2017-03-30T05:35:52.057Z,10.72
2017-03-30T05:37:04.588Z,10.8
2017-03-30T05:38:16.827Z,10.72
2017-03-30T05:39:29.351Z,10.77
2017-03-30T05:40:41.592Z,10.84
2017-03-30T05:41:54.125Z,10.83
2017-03-30T05:43:06.685Z,10.8
2017-03-30T05:44:19.202Z,10.83
2017-03-30T05:45:31.733Z,10.82
2017-03-30T05:46:44.256Z,10.9
2017-03-30T05:47:56.472Z,10.95
2017-03-30T05:49:08.993Z,10.98
2017-03-30T05:50:21.536Z,11.02
2017-03-30T05:51:33.778Z,10.89
2017-03-30T05:52:46.327Z,10.98
2017-03-30T05:53:58.852Z,10.97
2017-03-30T05:55:11.105Z,10.98
2017-03-30T05:56:23.639Z,11.02
2017-03-30T05:57:36.181Z,11.08
2017-03-30T05:58:48.706Z,11.04
2017-03-30T06:00:00.924Z,11.13
2017-03-30T06:01:13.128Z,11.1
2017-03-30T06:02:25.378Z,11.2
2017-03-30T06:03:37.897Z,11.15
2017-03-30T06:04:50.121Z,11.16
2017-03-30T06:06:02.064Z,11.18
2017-03-30T06:07:14.637Z,11.22
2017-03-30T06:08:27.179Z,11.18
2017-03-30T06:09:39.420Z,11.19
2017-03-30T06:10:51.362Z,11.22
2017-03-30T06:12:03.912Z,11.23
2017-03-30T06:13:16.429Z,11.31
2017-03-30T06:14:28.657Z,11.27
2017-03-30T06:15:41.178Z,11.23
2017-03-30T06:16:53.403Z,11.27
2017-03-30T06:18:05.923Z,11.35
2017-03-30T06:19:18.116Z,11.3
2017-03-30T06:20:30.638Z,11.35
2017-03-30T06:21:43.157Z,11.35
2017-03-30T06:22:55.424Z,11.37
2017-03-30T06:24:07.670Z,11.35
2017-03-30T06:25:19.889Z,11.38
2017-03-30T06:26:32.134Z,11.35
2017-03-30T06:27:44.705Z,11.45
2017-03-30T06:28:56.911Z,11.41
2017-03-30T06:30:09.472Z,11.43
2017-03-30T06:31:21.703Z,11.48
2017-03-30T06:32:33.929Z,11.51
2017-03-30T06:33:46.469Z,11.49
2017-03-30T06:34:58.992Z,11.48
2017-03-30T06:36:11.537Z,11.45
2017-03-30T06:37:24.037Z,11.41
2017-03-30T06:38:36.568Z,11.49
2017-03-30T06:39:49.089Z,11.44
2017-03-30T06:41:01.911Z,11.55
2017-03-30T06:42:14.468Z,11.49
2017-03-30T06:43:26.709Z,11.55
2017-03-30T06:44:39.236Z,11.62
2017-03-30T06:45:51.775Z,11.58
2017-03-30T06:47:04.015Z,11.67
2017-03-30T06:48:16.560Z,11.67
2017-03-30T06:49:29.082Z,11.59
2017-03-30T06:50:41.612Z,11.71
2017-03-30T06:51:53.826Z,11.7
2017-03-30T06:53:06.354Z,11.73
2017-03-30T06:54:18.597Z,11.68
2017-03-30T06:55:30.243Z,11.71
2017-03-30T06:56:42.811Z,11.76
2017-03-30T06:57:55.014Z,11.74
2017-03-30T06:59:07.551Z,11.74
2017-03-30T07:00:20.084Z,11.78
2017-03-30T07:01:32.344Z,11.8
2017-03-30T07:02:44.850Z,11.8
2017-03-30T07:03:57.061Z,11.81
2017-03-30T07:05:09.565Z,11.89
2017-03-30T07:06:22.132Z,11.88
2017-03-30T07:07:34.677Z,11.81
2017-03-30T07:08:47.228Z,11.88
2017-03-30T07:09:59.449Z,11.91
2017-03-30T07:11:12.015Z,11.93
2017-03-30T07:12:24.536Z,11.89
2017-03-30T07:13:36.776Z,11.89
2017-03-30T07:14:49.320Z,11.93
2017-03-30T07:16:01.553Z,11.89
2017-03-30T07:17:14.091Z,11.97
2017-03-30T07:18:26.590Z,11.88
2017-03-30T07:19:39.140Z,11.89
2017-03-30T07:20:51.686Z,11.89
2017-03-30T07:22:04.226Z,11.86
2017-03-30T07:23:16.749Z,11.88
2017-03-30T07:24:28.995Z,11.88
2017-03-30T07:25:41.200Z,11.99
2017-03-30T07:26:53.418Z,12
2017-03-30T07:28:05.654Z,11.99
2017-03-30T07:29:17.883Z,12.08
2017-03-30T07:30:30.425Z,12.07
2017-03-30T07:31:42.946Z,12.07
2017-03-30T07:32:55.195Z,12.11
2017-03-30T07:34:07.391Z,12.11
2017-03-30T07:35:19.929Z,12.08
2017-03-30T07:36:32.155Z,12.08
2017-03-30T07:37:44.695Z,12.08
2017-03-30T07:38:57.249Z,12.18
2017-03-30T07:40:09.492Z,12.18
2017-03-30T07:41:21.733Z,12.25
2017-03-30T07:42:34.276Z,12.26
2017-03-30T07:43:46.830Z,12.3
2017-03-30T07:44:59.350Z,12.35
2017-03-30T07:46:11.868Z,12.43
2017-03-30T07:47:24.085Z,12.47
2017-03-30T07:48:36.618Z,12.53
2017-03-30T07:49:49.165Z,12.54
2017-03-30T07:51:01.698Z,12.58
2017-03-30T07:52:14.219Z,12.66
2017-03-30T07:53:26.497Z,12.7
2017-03-30T07:54:39.036Z,12.63
2017-03-30T07:55:51.589Z,12.69
2017-03-30T07:57:03.792Z,12.68
2017-03-30T07:58:16.052Z,12.66
2017-03-30T07:59:28.301Z,12.8
2017-03-30T08:00:40.842Z,12.86
2017-03-30T08:01:53.087Z,12.8
2017-03-30T08:03:05.341Z,12.8
2017-03-30T08:04:17.285Z,12.86
2017-03-30T08:05:29.824Z,12.83
2017-03-30T08:06:42.373Z,12.94
2017-03-30T08:07:54.927Z,12.98
2017-03-30T08:09:07.164Z,13.02
2017-03-30T08:10:19.718Z,13.02
2017-03-30T08:11:32.264Z,13.09
2017-03-30T08:12:44.502Z,13.11
2017-03-30T08:13:56.745Z,13.17
2017-03-30T08:15:09.302Z,13.13
2017-03-30T08:16:21.520Z,13.16
2017-03-30T08:17:33.733Z,13.2
2017-03-30T08:18:46.518Z,13.13
2017-03-30T08:19:59.107Z,13.17
2017-03-30T08:21:11.656Z,13.23
2017-03-30T08:22:24.216Z,13.24
2017-03-30T08:23:36.441Z,13.28
2017-03-30T08:24:48.968Z,13.33
2017-03-30T08:26:01.516Z,13.33
2017-03-30T08:27:14.035Z,13.37
2017-03-30T08:28:26.575Z,13.42
2017-03-30T08:29:39.099Z,13.39
2017-03-30T08:30:51.641Z,13.39
2017-03-30T08:32:04.209Z,13.45
2017-03-30T08:33:16.458Z,13.36
2017-03-30T08:34:28.983Z,13.4
2017-03-30T08:35:41.528Z,13.37
2017-03-30T08:36:53.805Z,13.36
2017-03-30T08:38:06.364Z,13.36
2017-03-30T08:39:18.575Z,13.28
2017-03-30T08:40:30.806Z,13.33
2017-03-30T08:41:43.361Z,13.36
2017-03-30T08:42:55.900Z,13.3
2017-03-30T08:44:08.129Z,13.27
2017-03-30T08:45:20.621Z,13.26
2017-03-30T08:46:33.143Z,13.21
2017-03-30T08:47:45.381Z,13.24
2017-03-30T08:48:57.915Z,13.17
2017-03-30T08:50:10.173Z,13.12
2017-03-30T08:51:22.419Z,13.12
2017-03-30T08:52:34.965Z,13.17
2017-03-30T08:53:47.518Z,13.12
2017-03-30T08:54:59.756Z,13.13
2017-03-30T08:56:12.314Z,13.12
2017-03-30T08:57:24.834Z,13.11
2017-03-30T08:58:37.081Z,13.08
2017-03-30T08:59:49.323Z,13.16
2017-03-30T09:01:01.564Z,13.13
2017-03-30T09:02:14.091Z,13.12
2017-03-30T09:03:26.309Z,13.13
2017-03-30T09:04:38.832Z,13.11
2017-03-30T09:05:51.073Z,13.16
2017-03-30T09:07:03.594Z,13.16
2017-03-30T09:08:16.120Z,13.16
2017-03-30T09:09:28.615Z,13.09
2017-03-30T09:10:40.528Z,13.11
2017-03-30T09:11:53.082Z,13.11
2017-03-30T09:13:05.623Z,13.16
2017-03-30T09:14:17.566Z,12.98
2017-03-30T09:15:30.072Z,13.01
2017-03-30T09:16:42.308Z,12.99
2017-03-30T09:17:54.811Z,13.03
2017-03-30T09:19:07.009Z,13.02
2017-03-30T09:20:19.256Z,13.05
2017-03-30T09:21:30.902Z,13.12
2017-03-30T09:22:43.144Z,13.12
2017-03-30T09:23:55.362Z,13.09
2017-03-30T09:25:07.603Z,13.17
2017-03-30T09:26:19.832Z,13.23
2017-03-30T09:27:32.036Z,13.2
2017-03-30T09:28:44.595Z,13.19
2017-03-30T09:29:56.838Z,13.33
2017-03-30T09:31:09.392Z,13.28
2017-03-30T09:32:21.929Z,13.33
2017-03-30T09:33:34.458Z,13.42
2017-03-30T09:34:46.700Z,13.4
2017-03-30T09:35:59.242Z,13.47
2017-03-30T09:37:11.449Z,13.52
2017-03-30T09:38:23.983Z,13.57
2017-03-30T09:39:36.488Z,13.57
2017-03-30T09:40:48.413Z,13.61
2017-03-30T09:42:00.946Z,13.65
2017-03-30T09:43:13.501Z,13.75
2017-03-30T09:44:25.400Z,13.83
2017-03-30T09:45:37.970Z,13.79
2017-03-30T09:46:50.234Z,13.94
2017-03-30T09:48:02.463Z,13.93
2017-03-30T09:49:14.997Z,14.08
2017-03-30T09:50:27.250Z,13.95
2017-03-30T09:51:39.490Z,14.04
2017-03-30T09:52:51.718Z,14.12
2017-03-30T09:54:03.931Z,14.16
2017-03-30T09:55:16.477Z,14.23
2017-03-30T09:56:28.099Z,14.36
2017-03-30T09:57:40.658Z,14.37
2017-03-30T09:58:52.893Z,14.43
2017-03-30T10:00:04.835Z,14.41
2017-03-30T10:01:17.098Z,14.55
2017-03-30T10:02:29.037Z,14.59
2017-03-30T10:03:41.581Z,14.66
2017-03-30T10:04:53.825Z,14.86
2017-03-30T10:06:06.066Z,14.87
2017-03-30T10:07:18.319Z,15.05
2017-03-30T10:08:30.566Z,15.11
2017-03-30T10:09:43.101Z,15.27
2017-03-30T10:10:55.695Z,15.41
2017-03-30T10:12:08.245Z,15.54
2017-03-30T10:13:20.790Z,15.63
2017-03-30T10:14:32.725Z,15.76
2017-03-30T10:15:44.991Z,15.94
2017-03-30T10:16:57.203Z,15.99
2017-03-30T10:18:09.753Z,16.12
2017-03-30T10:19:22.001Z,16.24
2017-03-30T10:20:34.549Z,16.26
2017-03-30T10:21:47.091Z,16.46
2017-03-30T10:22:59.641Z,16.44
2017-03-30T10:24:11.608Z,16.47
2017-03-30T10:25:23.831Z,16.55
2017-03-30T10:26:36.077Z,16.59
2017-03-30T10:27:48.625Z,16.59
2017-03-30T10:29:01.163Z,16.59
2017-03-30T10:30:13.721Z,16.59
2017-03-30T10:31:26.007Z,16.65
2017-03-30T10:32:38.252Z,16.69
2017-03-30T10:33:50.779Z,16.64
2017-03-30T10:35:02.995Z,16.68
2017-03-30T10:36:15.542Z,16.73
2017-03-30T10:37:28.068Z,16.79
2017-03-30T10:38:40.282Z,16.73
2017-03-30T10:39:52.502Z,16.84
2017-03-30T10:41:04.751Z,16.98
2017-03-30T10:42:17.325Z,16.99
2017-03-30T10:43:29.539Z,16.95
2017-03-30T10:44:42.067Z,17.16
2017-03-30T10:45:54.584Z,17.3
2017-03-30T10:47:07.085Z,17.41
2017-03-30T10:48:19.326Z,17.44
2017-03-30T10:49:31.853Z,17.63
2017-03-30T10:50:44.399Z,17.63
2017-03-30T10:51:56.593Z,17.66
2017-03-30T10:53:09.141Z,17.6
2017-03-30T10:54:21.437Z,17.66
2017-03-30T10:55:33.723Z,17.76
2017-03-30T10:56:46.272Z,17.73
2017-03-30T10:57:58.528Z,17.73
2017-03-30T10:59:10.760Z,17.76
2017-03-30T11:00:23.313Z,17.8
2017-03-30T11:01:35.835Z,17.76
2017-03-30T11:02:48.380Z,17.69
2017-03-30T11:04:00.947Z,17.66
2017-03-30T11:05:13.478Z,17.57
2017-03-30T11:06:25.738Z,17.54
2017-03-30T11:07:38.314Z,17.54
2017-03-30T11:08:50.841Z,17.53
2017-03-30T11:10:03.400Z,17.39
2017-03-30T11:11:15.645Z,17.37
2017-03-30T11:12:27.915Z,17.3
2017-03-30T11:13:40.461Z,17.31
2017-03-30T11:14:52.682Z,17.14
2017-03-30T11:16:04.604Z,16.97
2017-03-30T11:17:16.874Z,17.05
2017-03-30T11:18:29.420Z,16.94
2017-03-30T11:19:41.651Z,16.95
2017-03-30T11:20:54.150Z,16.89
2017-03-30T11:22:06.686Z,16.98
2017-03-30T11:23:18.333Z,17.01
2017-03-30T11:24:30.875Z,17.04
2017-03-30T11:25:43.396Z,17.05
2017-03-30T11:26:55.953Z,17.16
2017-03-30T11:28:07.896Z,17.28
2017-03-30T11:29:20.141Z,17.39
2017-03-30T11:30:32.679Z,17.39
2017-03-30T11:31:45.226Z,17.63
2017-03-30T11:32:57.783Z,17.65
2017-03-30T11:34:10.020Z,17.66
2017-03-30T11:35:22.264Z,17.73
2017-03-30T11:36:34.517Z,17.82
2017-03-30T11:37:47.065Z,17.87
2017-03-30T11:38:59.614Z,17.9
2017-03-30T11:40:11.546Z,18.03
2017-03-30T11:41:24.117Z,18.08
2017-03-30T11:42:36.349Z,18.18
2017-03-30T11:43:48.910Z,18.13
2017-03-30T11:45:01.455Z,18.16
2017-03-30T11:46:14.014Z,18.24
2017-03-30T11:47:26.560Z,18.3
2017-03-30T11:48:39.118Z,18.12
2017-03-30T11:49:51.642Z,18.12
2017-03-30T11:51:04.171Z,18.03
2017-03-30T11:52:16.714Z,18.03
2017-03-30T11:53:28.964Z,18.06
2017-03-30T11:54:41.502Z,18.02
2017-03-30T11:55:54.047Z,17.98
2017-03-30T11:57:06.593Z,18.02
2017-03-30T11:58:19.124Z,17.95
2017-03-30T11:59:31.056Z,17.98
2017-03-30T12:00:43.588Z,17.95
2017-03-30T12:01:55.858Z,17.94
2017-03-30T12:03:08.405Z,17.94
2017-03-30T12:04:20.940Z,17.94
2017-03-30T12:05:33.161Z,17.87
2017-03-30T12:06:45.717Z,17.86
2017-03-30T12:07:58.255Z,17.86
2017-03-30T12:09:10.501Z,17.71
2017-03-30T12:10:22.745Z,17.73
2017-03-30T12:11:34.991Z,17.71
2017-03-30T12:12:47.540Z,17.63
2017-03-30T12:14:00.094Z,17.65
2017-03-30T12:15:12.640Z,17.63
2017-03-30T12:16:25.186Z,17.66
2017-03-30T12:17:37.981Z,17.6
2017-03-30T12:18:50.573Z,17.57
2017-03-30T12:20:03.112Z,17.56
2017-03-30T12:21:15.358Z,17.63
2017-03-30T12:22:27.908Z,17.66
2017-03-30T12:23:40.476Z,17.73
2017-03-30T12:24:53.003Z,17.79
2017-03-30T12:26:05.227Z,17.93
2017-03-30T12:27:17.490Z,17.95
2017-03-30T12:28:29.769Z,18
2017-03-30T12:29:42.336Z,18.15
2017-03-30T12:30:54.862Z,18.11
2017-03-30T12:32:07.149Z,18.3
2017-03-30T12:33:19.094Z,18.27
2017-03-30T12:34:31.613Z,18.31
2017-03-30T12:35:44.137Z,18.3
2017-03-30T12:36:56.683Z,18.3
2017-03-30T12:38:09.236Z,18.3
2017-03-30T12:39:21.754Z,18.27
2017-03-30T12:40:34.275Z,18.23
2017-03-30T12:41:46.791Z,18.3
2017-03-30T12:42:59.013Z,18.28
2017-03-30T12:44:10.930Z,18.16
2017-03-30T12:45:23.500Z,18.15
2017-03-30T12:46:36.058Z,18.16
2017-03-30T12:47:48.292Z,18.15
2017-03-30T12:49:00.824Z,18.13
2017-03-30T12:50:13.337Z,18.24
2017-03-30T12:51:25.883Z,18.3
2017-03-30T12:52:38.412Z,18.26
2017-03-30T12:53:50.629Z,18.28
2017-03-30T12:55:03.195Z,18.34
2017-03-30T12:56:15.443Z,18.28
2017-03-30T12:57:27.971Z,18.24
2017-03-30T12:58:40.513Z,18.24
2017-03-30T12:59:53.034Z,18.27
2017-03-30T13:01:05.578Z,18.27
2017-03-30T13:02:18.143Z,18.3
2017-03-30T13:03:30.404Z,18.37
2017-03-30T13:04:42.943Z,18.39
2017-03-30T13:05:55.245Z,18.45
2017-03-30T13:07:07.810Z,18.49
2017-03-30T13:08:20.351Z,18.52
2017-03-30T13:09:32.581Z,18.51
2017-03-30T13:10:45.127Z,18.6
2017-03-30T13:11:57.073Z,18.58
2017-03-30T13:13:09.634Z,18.66
2017-03-30T13:14:22.188Z,18.63
2017-03-30T13:15:34.752Z,18.61
2017-03-30T13:16:46.069Z,18.58
2017-03-30T13:17:58.608Z,18.49
2017-03-30T13:19:10.868Z,18.52
2017-03-30T13:20:23.108Z,18.48
2017-03-30T13:21:35.628Z,18.51
2017-03-30T13:22:48.187Z,18.55
2017-03-30T13:24:00.457Z,18.46
2017-03-30T13:25:12.694Z,18.39
2017-03-30T13:26:24.347Z,18.46
2017-03-30T13:27:36.893Z,18.42
2017-03-30T13:28:49.456Z,18.43
2017-03-30T13:30:01.982Z,18.37
2017-03-30T13:31:14.220Z,18.31
2017-03-30T13:32:26.758Z,18.27
2017-03-30T13:33:39.316Z,18.28
2017-03-30T13:34:51.586Z,18.3
2017-03-30T13:36:04.140Z,18.16
2017-03-30T13:37:16.392Z,18.12
2017-03-30T13:38:28.646Z,18.13
2017-03-30T13:39:41.173Z,18.15
2017-03-30T13:40:53.463Z,18.16
2017-03-30T13:42:05.684Z,18.06
2017-03-30T13:43:18.240Z,17.98
2017-03-30T13:44:30.825Z,18.02
2017-03-30T13:45:43.356Z,18.02
2017-03-30T13:46:55.591Z,18.06
2017-03-30T13:48:08.116Z,18.08
2017-03-30T13:49:20.345Z,18
2017-03-30T13:50:32.887Z,17.95
2017-03-30T13:51:45.087Z,17.98
2017-03-30T13:52:57.329Z,17.98
2017-03-30T13:54:09.554Z,17.97
2017-03-30T13:55:22.094Z,17.97
2017-03-30T13:56:34.663Z,18.06
2017-03-30T13:57:47.258Z,18
2017-03-30T13:58:59.809Z,18.08
2017-03-30T14:00:12.050Z,18.15
2017-03-30T14:01:24.305Z,18.18
2017-03-30T14:02:36.839Z,18.15
2017-03-30T14:03:49.060Z,18.28
2017-03-30T14:05:01.606Z,18.26
2017-03-30T14:06:13.809Z,18.34
2017-03-30T14:07:25.709Z,18.24
2017-03-30T14:08:37.610Z,18.24
2017-03-30T14:09:50.147Z,18.26
2017-03-30T14:11:02.385Z,18.3
2017-03-30T14:12:14.617Z,18.26
2017-03-30T14:13:27.152Z,18.24
2017-03-30T14:14:39.372Z,18.13
2017-03-30T14:15:51.622Z,18.16
2017-03-30T14:17:04.148Z,18.16
2017-03-30T14:18:16.393Z,18.05
2017-03-30T14:19:28.331Z,18.02
2017-03-30T14:20:40.877Z,18.08
2017-03-30T14:21:52.825Z,18.11
2017-03-30T14:23:05.052Z,18.02
2017-03-30T14:24:17.294Z,18.02
2017-03-30T14:25:29.853Z,18.03
2017-03-30T14:26:42.382Z,18.06
2017-03-30T14:27:54.632Z,18.03
2017-03-30T14:29:06.852Z,17.97
2017-03-30T14:30:19.369Z,18.06
2017-03-30T14:31:31.616Z,18.05
2017-03-30T14:32:44.169Z,18.05
2017-03-30T14:33:56.693Z,18.03
2017-03-30T14:35:09.266Z,18.03
2017-03-30T14:36:21.835Z,18.05
2017-03-30T14:37:34.378Z,17.98
2017-03-30T14:38:46.924Z,18.06
2017-03-30T14:39:59.462Z,18
2017-03-30T14:41:12.019Z,18.02
2017-03-30T14:42:24.587Z,18.05
2017-03-30T14:43:37.129Z,17.95
2017-03-30T14:44:49.654Z,17.94
2017-03-30T14:46:02.192Z,17.97
2017-03-30T14:47:14.463Z,17.91
2017-03-30T14:48:27.020Z,17.9
2017-03-30T14:49:39.566Z,17.91
2017-03-30T14:50:52.129Z,17.9
2017-03-30T14:52:04.654Z,17.95
2017-03-30T14:53:17.218Z,17.94
2017-03-30T14:54:28.842Z,17.93
2017-03-30T14:55:41.046Z,17.93
2017-03-30T14:56:53.567Z,17.91
2017-03-30T14:58:06.128Z,17.87
2017-03-30T14:59:18.375Z,17.86
2017-03-30T15:00:30.668Z,17.88
2017-03-30T15:01:43.198Z,17.91
2017-03-30T15:02:55.738Z,17.95
2017-03-30T15:04:07.984Z,18.02
2017-03-30T15:05:20.526Z,18.05
2017-03-30T15:06:33.052Z,18.02
2017-03-30T15:07:45.580Z,18.05
2017-03-30T15:08:58.142Z,18
2017-03-30T15:10:10.393Z,18.02
2017-03-30T15:11:22.931Z,18.08
2017-03-30T15:12:35.183Z,17.98
2017-03-30T15:13:47.705Z,18.05
2017-03-30T15:15:00.251Z,17.97
2017-03-30T15:16:12.503Z,18.03
2017-03-30T15:17:25.090Z,18.06
2017-03-30T15:18:37.635Z,18.12
2017-03-30T15:19:50.187Z,18.15
2017-03-30T15:21:02.682Z,18.15
2017-03-30T15:22:15.456Z,18.19
2017-03-30T15:23:27.422Z,18.18
2017-03-30T15:24:39.646Z,18.21
2017-03-30T15:25:52.195Z,18.19
2017-03-30T15:27:04.427Z,18.3
2017-03-30T15:28:16.352Z,18.27
2017-03-30T15:29:28.877Z,18.26
2017-03-30T15:30:41.119Z,18.31
2017-03-30T15:31:53.063Z,18.33
2017-03-30T15:33:05.619Z,18.34
2017-03-30T15:34:17.882Z,18.27
2017-03-30T15:35:30.099Z,18.27